Time;durP1;ratioP1;P1;durP2;ratioP2;P2;SDS_P1;SDS_P2;PMS_P1;PMS_P2;Temp;Humidity;BMP_temperature;BMP_pressure;BME280_temperature;BME280_humidity;BME280_pressure;Samples;Min_cycle;Max_cycle;Signal;HPM_P1;HPM_P2
2023/10/26 00:02:56;;;;;;;0.50;0.50;;;;;;;7.28;100.00;99716.28;10582186;28;20036;-71
2023/10/26 00:07:56;;;;;;;1.05;1.05;;;;;;;7.23;100.00;99710.66;10581419;28;20043;-71
2023/10/26 00:12:57;;;;;;;0.52;0.52;;;;;;;7.19;100.00;99712.13;10597359;27;20339;-70
2023/10/26 00:17:57;;;;;;;0.57;0.57;;;;;;;7.15;100.00;99721.66;10584036;28;20047;-71
2023/10/26 00:22:58;;;;;;;0.60;0.60;;;;;;;7.11;100.00;99726.59;10582869;28;20032;-71
2023/10/26 00:27:58;;;;;;;0.52;0.52;;;;;;;7.06;100.00;99718.31;10582111;28;20039;-71
2023/10/26 00:32:59;;;;;;;0.55;0.55;;;;;;;7.00;100.00;99719.13;10580935;28;20031;-72
2023/10/26 00:37:59;;;;;;;3.42;3.20;;;;;;;6.96;100.00;99713.31;10581173;28;20367;-72
2023/10/26 00:43:00;;;;;;;4.38;2.35;;;;;;;6.98;100.00;99715.78;10581025;28;20122;-70
2023/10/26 00:48:01;;;;;;;0.50;0.50;;;;;;;7.09;100.00;99720.59;10562242;28;20052;-71
2023/10/26 00:53:01;;;;;;;0.93;0.93;;;;;;;7.10;100.00;99716.84;10580740;28;20119;-71
2023/10/26 00:58:01;;;;;;;1.67;1.63;;;;;;;7.08;100.00;99718.09;10583608;28;20031;-72
2023/10/26 01:03:02;;;;;;;2.38;2.25;;;;;;;7.03;100.00;99709.81;10593878;28;20042;-71
2023/10/26 01:08:02;;;;;;;0.50;0.50;;;;;;;6.92;100.00;99711.22;10579578;28;20035;-71
2023/10/26 01:13:04;;;;;;;1.65;1.65;;;;;;;6.89;100.00;99714.31;10578047;28;20023;-71
2023/10/26 01:18:04;;;;;;;0.93;0.93;;;;;;;6.83;100.00;99704.34;10562008;28;20039;-71
2023/10/26 01:23:05;;;;;;;1.13;1.13;;;;;;;6.75;100.00;99714.28;10579762;28;20075;-69
2023/10/26 01:28:07;;;;;;;0.77;0.77;;;;;;;6.68;100.00;99712.59;10577850;28;20040;-70
2023/10/26 01:33:07;;;;;;;0.98;0.98;;;;;;;6.71;100.00;99704.13;10579346;28;20194;-71
2023/10/26 01:38:07;;;;;;;0.88;0.88;;;;;;;6.73;100.00;99697.53;10579012;28;20040;-70
2023/10/26 01:43:08;;;;;;;1.05;1.05;;;;;;;6.75;100.00;99708.06;10594315;27;20055;-70
2023/10/26 01:48:08;;;;;;;1.00;1.00;;;;;;;6.79;100.00;99708.50;10577473;28;20051;-70
2023/10/26 01:53:09;;;;;;;1.02;1.02;;;;;;;6.92;100.00;99713.91;10579177;28;20036;-70
2023/10/26 01:58:09;;;;;;;0.77;0.77;;;;;;;6.88;100.00;99721.56;10577648;28;20474;-71
2023/10/26 02:03:09;;;;;;;1.13;1.13;;;;;;;6.85;100.00;99718.44;10578423;28;20058;-71
2023/10/26 02:08:10;;;;;;;0.88;0.88;;;;;;;6.78;100.00;99712.22;10578513;28;20036;-72
2023/10/26 02:13:11;;;;;;;2.50;2.42;;;;;;;6.74;100.00;99701.88;10577193;28;20336;-72
2023/10/26 02:18:11;;;;;;;9.90;3.08;;;;;;;6.69;100.00;99688.19;10578488;28;20090;-70
2023/10/26 02:23:12;;;;;;;0.90;0.90;;;;;;;6.66;100.00;99696.66;10577437;28;20059;-71
2023/10/26 02:28:15;;;;;;;0.88;0.88;;;;;;;6.68;100.00;99689.22;10579691;28;20581;-71
2023/10/26 02:33:16;;;;;;;0.80;0.80;;;;;;;6.68;100.00;99688.38;10585949;28;20124;-72
2023/10/26 02:38:16;;;;;;;21.17;2.58;;;;;;;6.68;100.00;99697.28;10567651;28;20370;-72
2023/10/26 02:43:17;;;;;;;0.60;0.60;;;;;;;6.73;100.00;99686.75;10584300;28;20031;-71
2023/10/26 02:48:17;;;;;;;1.60;1.60;;;;;;;6.85;100.00;99688.84;10585331;28;20094;-72
2023/10/26 02:53:18;;;;;;;1.88;1.88;;;;;;;6.79;100.00;99686.97;10585370;28;20135;-71
2023/10/26 02:58:18;;;;;;;0.80;0.80;;;;;;;6.79;100.00;99686.97;10584798;28;20081;-71
2023/10/26 03:03:18;;;;;;;0.77;0.77;;;;;;;6.79;100.00;99684.28;10584417;28;20469;-71
2023/10/26 03:08:19;;;;;;;0.73;0.73;;;;;;;6.73;100.00;99693.97;10585708;28;20032;-70
2023/10/26 03:13:20;;;;;;;0.85;0.85;;;;;;;6.63;100.00;99677.41;10583422;28;20093;-71
2023/10/26 03:18:20;;;;;;;3.58;3.35;;;;;;;6.56;100.00;99672.00;10565652;28;20059;-72
2023/10/26 03:23:20;;;;;;;1.77;1.73;;;;;;;6.49;100.00;99677.34;10582416;28;20028;-70
2023/10/26 03:28:21;;;;;;;1.23;1.23;;;;;;;6.42;100.00;99673.81;10583772;28;20046;-70
2023/10/26 03:33:21;;;;;;;1.98;1.88;;;;;;;6.40;100.00;99661.59;10583119;28;20517;-70
2023/10/26 03:38:22;;;;;;;0.90;0.90;;;;;;;6.52;100.00;99665.38;10581091;28;20039;-71
2023/10/26 03:43:22;;;;;;;0.60;0.60;;;;;;;6.65;100.00;99664.59;10583563;28;20485;-72
2023/10/26 03:48:23;;;;;;;1.40;1.40;;;;;;;6.72;100.00;99668.13;10583646;28;20060;-71
2023/10/26 03:53:23;;;;;;;1.58;1.58;;;;;;;6.69;100.00;99658.59;10583627;28;20187;-71
2023/10/26 03:58:23;;;;;;;2.70;2.10;;;;;;;6.72;100.00;99643.91;10583324;28;20036;-72
2023/10/26 04:03:24;;;;;;;4.22;3.83;;;;;;;6.74;100.00;99647.22;10582374;27;20118;-71
2023/10/26 04:08:24;;;;;;;0.80;0.80;;;;;;;6.69;100.00;99637.06;10582140;28;20039;-71
2023/10/26 04:13:30;;;;;;;0.60;0.60;;;;;;;6.56;100.00;99639.72;10581881;28;20067;-71
2023/10/26 04:18:30;;;;;;;0.60;0.60;;;;;;;6.64;100.00;99638.72;10581846;28;20039;-71
2023/10/26 04:23:31;;;;;;;2.05;1.70;;;;;;;6.66;100.00;99632.09;10581658;27;20074;-73
2023/10/26 04:28:31;;;;;;;0.50;0.50;;;;;;;6.71;100.00;99628.81;10580904;28;20035;-71
2023/10/26 04:33:32;;;;;;;0.50;0.50;;;;;;;6.75;100.00;99630.88;10581559;28;20035;-70
2023/10/26 04:38:32;;;;;;;0.70;0.70;;;;;;;6.73;100.00;99632.97;10581752;28;20419;-71
2023/10/26 04:43:32;;;;;;;0.55;0.55;;;;;;;6.75;100.00;99625.50;10579808;28;20265;-72
2023/10/26 04:48:33;;;;;;;1.77;1.77;;;;;;;6.74;100.00;99631.91;10579962;28;20062;-73
2023/10/26 04:53:33;;;;;;;1.13;1.13;;;;;;;6.81;100.00;99639.16;10579011;28;20051;-72
2023/10/26 04:58:34;;;;;;;1.77;1.67;;;;;;;6.92;100.00;99633.16;10596146;27;20035;-73
2023/10/26 05:03:34;;;;;;;0.95;0.95;;;;;;;6.92;100.00;99636.72;10595564;27;20466;-72
2023/10/26 05:08:35;;;;;;;1.45;1.45;;;;;;;6.88;100.00;99635.44;10580146;28;20055;-72
2023/10/26 05:13:35;;;;;;;0.70;0.70;;;;;;;6.78;100.00;99634.19;10581769;28;20058;-72
2023/10/26 05:18:36;;;;;;;0.68;0.68;;;;;;;6.68;100.00;99635.41;10581045;28;20035;-71
2023/10/26 05:23:37;;;;;;;1.25;1.25;;;;;;;6.73;100.00;99634.78;10544617;28;20035;-71
2023/10/26 05:28:38;;;;;;;33.42;3.17;;;;;;;6.71;100.00;99620.72;10516997;28;20165;-71
2023/10/26 05:33:38;;;;;;;1.33;1.33;;;;;;;6.74;100.00;99617.63;10577617;28;20036;-72
2023/10/26 05:38:39;;;;;;;0.82;0.82;;;;;;;6.83;100.00;99611.03;10577472;28;20114;-71
2023/10/26 05:43:39;;;;;;;1.02;1.02;;;;;;;6.90;100.00;99611.03;10577422;28;20478;-71
2023/10/26 05:48:40;;;;;;;2.03;2.03;;;;;;;6.80;100.00;99613.31;10577930;28;20550;-72
2023/10/26 05:53:40;;;;;;;1.15;1.15;;;;;;;6.64;100.00;99612.66;10579128;28;20477;-71
2023/10/26 05:58:41;;;;;;;0.50;0.50;;;;;;;6.68;100.00;99608.50;10577491;28;20038;-69
2023/10/26 06:03:42;;;;;;;1.30;1.30;;;;;;;6.75;100.00;99595.91;10581469;28;20023;-71
2023/10/26 06:08:42;;;;;;;0.82;0.82;;;;;;;6.92;100.00;99587.44;10585427;28;20043;-71
2023/10/26 06:13:43;;;;;;;0.40;0.40;;;;;;;7.15;100.00;99592.44;10586381;28;20062;-72
2023/10/26 06:18:44;;;;;;;0.80;0.80;;;;;;;7.29;100.00;99587.84;10585797;28;20055;-71
2023/10/26 06:23:44;;;;;;;0.45;0.45;;;;;;;7.45;100.00;99592.81;10585045;28;20362;-72
2023/10/26 06:28:46;;;;;;;0.75;0.75;;;;;;;7.55;100.00;99587.81;10585939;28;20035;-70
2023/10/26 06:33:47;;;;;;;4.57;2.50;;;;;;;7.69;100.00;99596.72;10566754;28;20043;-72
2023/10/26 06:38:47;;;;;;;2.05;2.05;;;;;;;7.81;100.00;99602.25;10584221;28;20039;-70
2023/10/26 06:43:48;;;;;;;0.70;0.70;;;;;;;7.92;100.00;99607.00;10585728;28;20431;-72
2023/10/26 06:48:48;;;;;;;1.10;1.10;;;;;;;8.06;100.00;99603.22;10583640;28;20078;-71
2023/10/26 06:53:48;;;;;;;0.90;0.90;;;;;;;8.14;100.00;99602.19;10586343;28;20442;-71
2023/10/26 06:58:49;;;;;;;3.35;3.08;;;;;;;8.15;100.00;99595.72;10584742;28;20085;-71
2023/10/26 07:03:50;;;;;;;1.33;1.33;;;;;;;8.14;100.00;99603.00;10585733;27;20031;-71
2023/10/26 07:08:50;;;;;;;0.60;0.60;;;;;;;8.10;100.00;99598.22;10584744;28;20038;-72
2023/10/26 07:13:51;;;;;;;1.85;1.83;;;;;;;8.12;100.00;99599.69;10583702;28;20043;-71
2023/10/26 07:18:52;;;;;;;2.38;2.28;;;;;;;8.25;100.00;99601.50;10584362;28;20035;-70
2023/10/26 07:23:53;;;;;;;1.52;1.52;;;;;;;8.29;100.00;99609.97;10582601;28;20033;-71
2023/10/26 07:28:55;;;;;;;2.92;2.80;;;;;;;8.24;100.00;99607.94;10584123;28;20131;-72
2023/10/26 07:33:55;;;;;;;2.25;2.15;;;;;;;8.30;100.00;99612.47;10583191;28;20047;-72
2023/10/26 07:38:56;;;;;;;0.80;0.80;;;;;;;8.47;100.00;99622.81;10588241;28;20032;-72
2023/10/26 07:43:56;;;;;;;0.52;0.52;;;;;;;8.60;100.00;99607.38;10590156;28;20098;-72
2023/10/26 07:48:56;;;;;;;0.75;0.75;;;;;;;8.59;100.00;99608.41;10590393;28;20120;-71
2023/10/26 07:53:57;;;;;;;2.13;1.88;;;;;;;8.69;100.00;99602.53;10594401;28;20032;-71
2023/10/26 07:58:58;;;;;;;0.80;0.80;;;;;;;8.75;100.00;99596.28;10567352;28;20066;-71
2023/10/26 08:03:58;;;;;;;19.88;1.75;;;;;;;8.91;100.00;99608.44;10580984;28;20083;-71
2023/10/26 08:08:59;;;;;;;1.45;1.45;;;;;;;8.89;100.00;99605.09;10583097;28;20501;-72
2023/10/26 08:14:00;;;;;;;3.55;2.67;;;;;;;9.05;100.00;99604.56;10584219;28;20054;-71
2023/10/26 08:19:00;;;;;;;0.65;0.65;;;;;;;8.98;100.00;99611.06;10583396;28;20038;-72
2023/10/26 08:24:00;;;;;;;1.10;1.10;;;;;;;9.11;100.00;99599.34;10584430;28;20144;-71
2023/10/26 08:29:01;;;;;;;6.07;3.35;;;;;;;9.21;100.00;99613.19;10584538;28;20047;-72
2023/10/26 08:34:01;;;;;;;0.95;0.95;;;;;;;9.58;100.00;99597.06;10582072;28;20043;-72
2023/10/26 08:39:02;;;;;;;1.60;1.48;;;;;;;9.68;100.00;99616.31;10585007;28;20077;-72
2023/10/26 08:44:03;;;;;;;3.42;3.25;;;;;;;9.59;100.00;99607.66;10582111;28;20047;-70
2023/10/26 08:49:04;;;;;;;2.35;2.25;;;;;;;9.99;100.00;99608.06;10582474;28;20051;-71
2023/10/26 08:54:05;;;;;;;3.00;2.90;;;;;;;10.27;100.00;99612.13;10564781;28;20532;-71
2023/10/26 08:59:05;;;;;;;4.75;4.45;;;;;;;10.43;100.00;99613.38;10581435;28;20058;-72
2023/10/26 09:04:09;;;;;;;1.05;1.05;;;;;;;10.54;100.00;99593.69;10580735;28;20122;-73
2023/10/26 09:09:10;;;;;;;2.95;2.85;;;;;;;11.26;100.00;99599.03;10581274;28;20032;-70
2023/10/26 09:14:19;;;;;;;3.08;2.97;;;;;;;10.99;100.00;99608.66;10582560;28;20044;-73
2023/10/26 09:19:20;;;;;;;2.80;2.67;;;;;;;10.82;100.00;99592.25;10582088;28;20039;-73
2023/10/26 09:24:27;;;;;;;3.30;2.05;;;;;;;10.64;100.00;99585.81;10581589;28;20036;-74
2023/10/26 09:29:41;;;;;;;2.95;2.70;;;;;;;10.77;100.00;99573.16;10580743;27;20119;-73
2023/10/26 09:34:42;;;;;;;2.53;2.28;;;;;;;11.01;100.00;99577.56;10563378;28;20027;-74
2023/10/26 09:39:43;;;;;;;2.90;2.80;;;;;;;10.86;100.00;99578.00;10579726;28;20035;-73
2023/10/26 09:44:43;;;;;;;4.07;3.90;;;;;;;10.80;100.00;99580.81;10581089;28;20046;-74
2023/10/26 09:49:44;;;;;;;2.58;2.50;;;;;;;10.89;100.00;99576.72;10582740;28;20056;-74
2023/10/26 09:54:44;;;;;;;2.28;2.17;;;;;;;12.29;100.00;99586.72;10580636;28;20350;-75
2023/10/26 09:59:47;;;;;;;3.22;2.95;;;;;;;13.66;100.00;99573.06;10585166;28;20477;-75
2023/10/26 10:04:48;;;;;;;1.75;1.75;;;;;;;14.28;100.00;99571.94;10593080;28;20046;-75
2023/10/26 10:10:05;;;;;;;3.70;3.40;;;;;;;13.92;100.00;99582.38;10592598;28;20047;-74
2023/10/26 10:15:09;;;;;;;10.18;3.38;;;;;;;14.61;100.00;99579.13;10580560;28;20380;-74
2023/10/26 10:20:19;;;;;;;1.35;1.35;;;;;;;14.85;100.00;99579.66;10563089;28;20167;-76
2023/10/26 10:25:23;;;;;;;1.83;1.83;;;;;;;15.13;100.00;99577.75;10580521;28;20481;-75
2023/10/26 10:30:28;;;;;;;4.47;2.58;;;;;;;15.33;100.00;99558.81;10580439;28;20406;-76
2023/10/26 10:35:28;;;;;;;2.33;2.22;;;;;;;15.35;100.00;99534.81;10579837;28;20429;-75
2023/10/26 10:40:29;;;;;;;2.70;2.60;;;;;;;14.29;100.00;99533.56;10580071;28;20035;-76
2023/10/26 10:45:30;;;;;;;3.47;3.22;;;;;;;13.16;100.00;99519.53;10579791;28;20380;-76
2023/10/26 10:50:30;;;;;;;1.33;1.33;;;;;;;13.13;100.00;99529.00;10585033;28;20061;-76
2023/10/26 10:55:31;;;;;;;0.98;0.98;;;;;;;13.48;100.00;99533.34;10588400;28;20038;-76
2023/10/26 11:00:45;;;;;;;1.23;1.23;;;;;;;13.80;100.00;99530.78;10586957;28;20019;-74
2023/10/26 11:05:46;;;;;;;4.78;1.90;;;;;;;14.10;100.00;99521.34;10569157;28;20031;-76
2023/10/26 11:10:49;;;;;;;1.90;1.83;;;;;;;14.35;100.00;99529.81;10585661;28;20400;-76
2023/10/26 11:15:50;;;;;;;1.13;1.13;;;;;;;14.64;100.00;99519.53;10585010;28;20043;-74
2023/10/26 11:20:50;;;;;;;0.90;0.90;;;;;;;14.98;100.00;99519.28;10585174;28;20404;-75
2023/10/26 11:25:51;;;;;;;0.95;0.95;;;;;;;14.67;100.00;99511.91;10585680;28;20036;-75
2023/10/26 11:30:52;;;;;;;0.50;0.50;;;;;;;14.21;100.00;99516.88;10586216;28;20386;-75
2023/10/26 11:35:52;;;;;;;2.03;1.98;;;;;;;14.23;100.00;99533.75;10586669;28;20051;-75
2023/10/26 11:40:53;;;;;;;0.85;0.85;;;;;;;14.13;100.00;99529.00;10585015;28;20032;-76
2023/10/26 11:45:53;;;;;;;0.50;0.50;;;;;;;14.00;100.00;99524.78;10586789;28;20066;-75
2023/10/26 11:50:54;;;;;;;0.60;0.60;;;;;;;13.98;100.00;99537.03;10584372;28;20046;-76
2023/10/26 11:55:54;;;;;;;0.60;0.60;;;;;;;13.69;100.00;99524.41;10585321;28;20039;-76
2023/10/26 12:00:55;;;;;;;0.60;0.60;;;;;;;13.43;100.00;99519.66;10585609;28;20421;-76
2023/10/26 12:05:55;;;;;;;0.90;0.90;;;;;;;13.38;100.00;99511.44;10583927;28;20437;-75
2023/10/26 12:10:56;;;;;;;1.95;1.15;;;;;;;13.26;100.00;99504.22;10584903;28;20042;-75
2023/10/26 12:15:56;;;;;;;0.85;0.85;;;;;;;13.39;100.00;99502.22;10582924;28;20374;-75
2023/10/26 12:20:57;;;;;;;1.65;1.65;;;;;;;13.09;100.00;99492.50;10585485;28;20028;-75
2023/10/26 12:25:57;;;;;;;0.50;0.50;;;;;;;13.10;100.00;99510.47;10574959;28;20092;-76
2023/10/26 12:30:58;;;;;;;1.05;1.05;;;;;;;13.06;100.00;99512.03;10600625;28;20075;-76
2023/10/26 12:35:58;;;;;;;1.15;1.15;;;;;;;13.05;100.00;99513.13;10596891;28;20039;-74
2023/10/26 12:40:58;;;;;;;2.10;2.00;;;;;;;12.99;100.00;99509.47;10587773;28;20084;-75
2023/10/26 12:45:59;;;;;;;2.72;2.03;;;;;;;12.91;100.00;99492.75;10584565;28;20071;-76
2023/10/26 12:50:59;;;;;;;1.40;1.40;;;;;;;12.88;100.00;99490.53;10582638;28;20443;-76
2023/10/26 12:56:01;;;;;;;1.65;1.65;;;;;;;12.86;100.00;99488.09;10582600;28;20066;-75
2023/10/26 13:01:02;;;;;;;0.60;0.60;;;;;;;12.94;100.00;99484.13;10582432;28;20036;-75
2023/10/26 13:06:02;;;;;;;3.80;1.65;;;;;;;12.56;100.00;99469.38;10582785;28;20092;-76
2023/10/26 13:11:03;;;;;;;0.50;0.50;;;;;;;12.56;100.00;99464.75;10581591;28;20035;-76
2023/10/26 13:16:08;;;;;;;2.13;2.03;;;;;;;12.54;100.00;99474.25;10581987;28;20456;-75
2023/10/26 13:21:08;;;;;;;1.13;1.13;;;;;;;12.76;100.00;99461.56;10583068;28;20134;-77
2023/10/26 13:26:09;;;;;;;1.42;1.42;;;;;;;12.89;100.00;99463.13;10583504;28;20126;-75
2023/10/26 13:31:10;;;;;;;0.60;0.60;;;;;;;12.96;100.00;99457.53;10579955;28;20471;-74
2023/10/26 13:36:10;;;;;;;18.27;10.77;;;;;;;12.79;100.00;99455.66;10579976;28;20042;-75
2023/10/26 13:41:10;;;;;;;13.52;9.35;;;;;;;12.72;100.00;99448.72;10581528;28;20028;-76
2023/10/26 13:46:11;;;;;;;13.73;9.82;;;;;;;12.53;100.00;99451.66;10579979;28;20056;-76
2023/10/26 13:51:17;;;;;;;12.05;10.10;;;;;;;12.43;100.00;99456.94;10582030;28;20118;-75
2023/10/26 13:56:18;;;;;;;14.70;9.45;;;;;;;12.31;100.00;99454.28;10581755;28;20122;-76
2023/10/26 14:01:18;;;;;;;13.02;9.68;;;;;;;12.32;100.00;99453.22;10579994;28;20462;-75
2023/10/26 14:06:21;;;;;;;12.90;9.15;;;;;;;12.25;100.00;99435.44;10582631;28;20059;-74
2023/10/26 14:11:21;;;;;;;10.32;8.48;;;;;;;12.19;100.00;99425.53;10564367;28;20095;-75
2023/10/26 14:16:22;;;;;;;12.52;9.77;;;;;;;12.53;100.00;99415.56;10580139;28;20040;-76
2023/10/26 14:21:23;;;;;;;15.35;10.18;;;;;;;12.96;100.00;99400.47;10581427;28;20028;-74
2023/10/26 14:26:23;;;;;;;10.88;9.77;;;;;;;12.32;100.00;99398.13;10586976;28;20040;-77
2023/10/26 14:31:23;;;;;;;11.63;9.98;;;;;;;11.88;100.00;99391.63;10589200;28;20036;-75
2023/10/26 14:36:24;;;;;;;11.77;8.43;;;;;;;11.91;100.00;99377.59;10595315;28;20454;-75
2023/10/26 14:41:24;;;;;;;15.25;9.77;;;;;;;11.98;100.00;99380.97;10592669;28;20064;-75
2023/10/26 14:46:25;;;;;;;14.93;11.20;;;;;;;11.88;100.00;99369.94;10589363;28;20128;-76
2023/10/26 14:51:25;;;;;;;16.00;10.55;;;;;;;11.96;100.00;99358.66;10588273;28;20067;-76
2023/10/26 14:56:25;;;;;;;11.15;9.65;;;;;;;11.97;100.00;99366.59;10608990;28;20032;-75
2023/10/26 15:01:26;;;;;;;10.40;9.30;;;;;;;11.98;100.00;99373.66;10591626;28;20031;-74
2023/10/26 15:06:26;;;;;;;22.50;8.70;;;;;;;11.77;100.00;99383.28;10570952;28;20031;-75
2023/10/26 15:11:27;;;;;;;11.32;8.98;;;;;;;11.67;100.00;99387.66;10588651;28;20035;-75
2023/10/26 15:16:27;;;;;;;28.73;8.02;;;;;;;11.67;100.00;99388.47;10587160;28;20427;-75
2023/10/26 15:21:28;;;;;;;16.25;10.68;;;;;;;11.51;100.00;99387.38;10604424;27;20027;-75
2023/10/26 15:26:28;;;;;;;13.00;11.65;;;;;;;11.55;100.00;99393.13;10586775;28;20470;-74
2023/10/26 15:31:29;;;;;;;18.48;10.98;;;;;;;11.54;100.00;99386.06;10586781;28;20032;-76
2023/10/26 15:36:29;;;;;;;16.88;10.80;;;;;;;11.56;100.00;99367.69;10586737;28;20047;-75
2023/10/26 15:41:32;;;;;;;19.27;13.98;;;;;;;11.54;100.00;99372.50;10586378;28;20085;-74
2023/10/26 15:46:33;;;;;;;22.27;14.02;;;;;;;11.46;100.00;99362.06;10584952;28;20335;-77
2023/10/26 15:51:33;;;;;;;13.88;12.43;;;;;;;11.45;100.00;99376.66;10584969;28;20032;-76
2023/10/26 15:56:34;;;;;;;17.60;12.85;;;;;;;11.49;100.00;99380.56;10585689;28;20043;-76
2023/10/26 16:01:34;;;;;;;20.20;15.40;;;;;;;11.44;100.00;99383.16;10584434;28;20082;-75
2023/10/26 16:06:34;;;;;;;20.88;15.60;;;;;;;11.35;100.00;99383.50;10584253;28;20074;-73
2023/10/26 16:11:35;;;;;;;23.98;18.15;;;;;;;11.28;100.00;99366.56;10583502;28;20118;-76
2023/10/26 16:16:35;;;;;;;19.98;14.60;;;;;;;11.21;100.00;99381.34;10584565;28;20059;-76
2023/10/26 16:21:36;;;;;;;25.98;16.73;;;;;;;11.02;100.00;99369.81;10583149;28;20055;-75
2023/10/26 16:26:36;;;;;;;21.58;14.77;;;;;;;10.80;100.00;99359.59;10550748;28;20049;-74
2023/10/26 16:31:37;;;;;;;22.95;18.75;;;;;;;10.61;100.00;99374.31;10588267;28;20363;-75
2023/10/26 16:36:37;;;;;;;26.08;17.58;;;;;;;10.66;100.00;99393.41;10584137;28;20046;-75
2023/10/26 16:41:37;;;;;;;24.13;18.42;;;;;;;10.69;100.00;99384.81;10584367;28;20455;-74
2023/10/26 16:46:38;;;;;;;28.45;16.67;;;;;;;10.51;100.00;99384.91;10584115;28;20116;-74
2023/10/26 16:51:38;;;;;;;25.33;18.35;;;;;;;10.55;100.00;99380.66;10583857;28;20082;-73
2023/10/26 16:56:39;;;;;;;25.05;18.88;;;;;;;10.56;100.00;99376.88;10564305;28;20043;-74
2023/10/26 17:01:40;;;;;;;24.88;19.42;;;;;;;10.50;100.00;99361.59;10581811;28;20039;-73
2023/10/26 17:06:40;;;;;;;27.98;20.30;;;;;;;10.56;100.00;99364.22;10582181;28;20032;-73
2023/10/26 17:11:41;;;;;;;23.73;18.60;;;;;;;10.56;100.00;99360.66;10562974;28;20432;-75
2023/10/26 17:16:41;;;;;;;27.15;20.20;;;;;;;10.61;100.00;99368.91;10580866;28;20135;-74
2023/10/26 17:21:42;;;;;;;30.38;20.55;;;;;;;10.64;100.00;99374.66;10589295;28;20087;-73
2023/10/26 17:26:43;;;;;;;35.28;21.90;;;;;;;10.75;100.00;99373.00;10602228;28;20028;-73
2023/10/26 17:31:43;;;;;;;29.65;21.75;;;;;;;10.81;100.00;99358.53;10586289;28;20347;-73
2023/10/26 17:36:43;;;;;;;38.60;21.83;;;;;;;10.79;100.00;99374.19;10581906;28;20040;-72
2023/10/26 17:41:45;;;;;;;32.58;22.33;;;;;;;10.83;100.00;99386.19;10580036;28;20028;-75
2023/10/26 17:46:45;;;;;;;33.92;22.55;;;;;;;10.81;100.00;99369.34;10580084;28;20035;-72
2023/10/26 17:51:46;;;;;;;40.97;23.48;;;;;;;10.85;100.00;99375.16;10581353;28;20122;-72
2023/10/26 17:56:46;;;;;;;29.73;21.45;;;;;;;10.88;100.00;99361.94;10583362;28;20039;-73
2023/10/26 18:01:47;;;;;;;37.80;23.50;;;;;;;10.89;100.00;99347.34;10584867;28;20032;-73
2023/10/26 18:06:47;;;;;;;35.15;21.20;;;;;;;10.91;100.00;99352.50;10584544;28;20047;-74
2023/10/26 18:11:47;;;;;;;36.65;22.90;;;;;;;10.93;100.00;99362.03;10596774;28;20031;-73
2023/10/26 18:16:49;;;;;;;32.65;22.90;;;;;;;10.93;100.00;99350.41;10580519;28;20118;-73
2023/10/26 18:21:50;;;;;;;42.50;26.45;;;;;;;10.91;100.00;99331.69;10580301;28;20055;-73
2023/10/26 18:26:51;;;;;;;41.08;26.13;;;;;;;10.87;100.00;99335.91;10598024;28;20059;-72
2023/10/26 18:31:51;;;;;;;39.80;26.08;;;;;;;10.87;100.00;99332.38;10580429;28;20039;-73
2023/10/26 18:36:55;;;;;;;36.55;24.95;;;;;;;10.86;100.00;99328.84;10579287;28;20078;-73
2023/10/26 18:41:55;;;;;;;49.40;27.00;;;;;;;10.74;100.00;99313.69;10580880;28;20023;-75
2023/10/26 18:46:56;;;;;;;38.63;26.73;;;;;;;10.66;100.00;99310.28;10580588;28;20102;-72
2023/10/26 18:51:56;;;;;;;38.03;29.33;;;;;;;10.57;100.00;99308.19;10580337;28;20449;-75
2023/10/26 18:56:57;;;;;;;39.40;27.65;;;;;;;10.64;100.00;99319.72;10579552;28;20059;-74
2023/10/26 19:02:00;;;;;;;37.97;28.02;;;;;;;10.62;100.00;99303.69;10579329;28;20043;-72
2023/10/26 19:07:00;;;;;;;40.85;29.42;;;;;;;10.63;100.00;99307.25;10579636;28;20039;-72
2023/10/26 19:12:00;;;;;;;44.05;30.88;;;;;;;10.57;100.00;99298.16;10585341;28;20062;-75
2023/10/26 19:17:01;;;;;;;42.38;32.33;;;;;;;10.48;100.00;99295.00;10587234;28;20036;-74
2023/10/26 19:22:02;;;;;;;43.50;32.13;;;;;;;10.45;100.00;99302.75;10586557;28;20040;-73
2023/10/26 19:27:03;;;;;;;44.47;31.60;;;;;;;10.50;100.00;99296.63;10586167;28;20035;-73
2023/10/26 19:32:03;;;;;;;51.40;33.33;;;;;;;10.58;100.00;99315.22;10602000;27;20390;-73
2023/10/26 19:37:04;;;;;;;42.75;31.67;;;;;;;10.62;100.00;99316.41;10583733;28;20036;-73
2023/10/26 19:42:04;;;;;;;42.70;32.42;;;;;;;10.75;100.00;99331.56;10587000;28;20034;-75
2023/10/26 19:47:05;;;;;;;42.83;29.77;;;;;;;10.83;100.00;99344.75;10598081;28;20096;-72
2023/10/26 19:52:07;;;;;;;48.65;33.28;;;;;;;10.86;100.00;99325.34;10603451;28;20083;-73
2023/10/26 19:57:09;;;;;;;38.33;28.73;;;;;;;10.82;100.00;99324.16;10597760;28;20127;-74
2023/10/26 20:02:09;;;;;;;36.55;30.40;;;;;;;10.79;100.00;99317.34;10586595;28;20425;-73
2023/10/26 20:07:10;;;;;;;42.22;31.30;;;;;;;10.86;100.00;99328.84;10585314;28;20114;-74
2023/10/26 20:12:10;;;;;;;44.13;32.35;;;;;;;10.82;100.00;99307.94;10567432;28;20065;-73
2023/10/26 20:17:10;;;;;;;39.95;29.40;;;;;;;10.88;100.00;99305.09;10585179;28;20122;-71
2023/10/26 20:22:11;;;;;;;49.50;32.55;;;;;;;10.91;100.00;99306.47;10582613;28;20043;-73
2023/10/26 20:27:11;;;;;;;41.85;29.27;;;;;;;10.91;100.00;99309.19;10583125;28;20474;-72
2023/10/26 20:32:12;;;;;;;46.67;30.08;;;;;;;10.91;100.00;99304.59;10584609;28;20059;-71
2023/10/26 20:37:12;;;;;;;41.47;29.42;;;;;;;10.96;100.00;99303.06;10584877;28;20059;-75
2023/10/26 20:42:13;;;;;;;44.53;27.38;;;;;;;11.00;100.00;99301.50;10583669;28;20408;-72
2023/10/26 20:47:13;;;;;;;41.47;30.00;;;;;;;10.96;100.00;99286.81;10584467;28;20378;-73
2023/10/26 20:52:13;;;;;;;49.85;33.78;;;;;;;10.90;100.00;99288.59;10581938;28;20040;-72
2023/10/26 20:57:14;;;;;;;49.22;33.05;;;;;;;10.97;100.00;99274.91;10581900;28;20134;-73
2023/10/26 21:02:14;;;;;;;48.22;31.52;;;;;;;10.92;100.00;99273.75;10564498;28;20099;-70
2023/10/26 21:07:15;;;;;;;58.60;34.25;;;;;;;10.91;100.00;99269.41;10582433;28;20403;-72
2023/10/26 21:12:15;;;;;;;44.50;28.88;;;;;;;10.97;100.00;99264.06;10580233;28;20501;-72
2023/10/26 21:17:16;;;;;;;54.28;34.60;;;;;;;11.00;100.00;99264.41;10582121;28;20039;-73
2023/10/26 21:22:16;;;;;;;42.45;30.60;;;;;;;10.97;100.00;99243.22;10583746;28;20055;-74
2023/10/26 21:27:17;;;;;;;46.63;31.70;;;;;;;10.98;100.00;99238.66;10582188;28;20027;-72
2023/10/26 21:32:18;;;;;;;49.88;29.67;;;;;;;10.99;100.00;99232.16;10581103;28;20046;-74
2023/10/26 21:37:19;;;;;;;40.40;30.38;;;;;;;10.98;100.00;99241.34;10588210;28;20031;-74
2023/10/26 21:42:20;;;;;;;46.65;31.08;;;;;;;11.03;100.00;99230.59;10587021;28;20031;-73
2023/10/26 21:47:20;;;;;;;38.30;30.15;;;;;;;11.01;100.00;99232.72;10564878;28;20097;-73
2023/10/26 21:52:20;;;;;;;41.00;27.02;;;;;;;11.04;100.00;99232.25;10582913;28;20039;-72
2023/10/26 21:57:23;;;;;;;41.72;30.23;;;;;;;11.04;100.00;99222.25;10580829;28;20050;-74
2023/10/26 22:02:24;;;;;;;42.92;29.85;;;;;;;10.96;100.00;99219.09;10580861;28;20034;-74
2023/10/26 22:07:25;;;;;;;41.47;26.63;;;;;;;10.98;100.00;99222.41;10580125;28;20116;-73
2023/10/26 22:12:26;;;;;;;46.17;28.40;;;;;;;10.98;100.00;99211.56;10587378;28;20097;-73
2023/10/26 22:17:26;;;;;;;38.33;27.92;;;;;;;10.96;100.00;99208.25;10571979;28;20079;-72
2023/10/26 22:22:26;;;;;;;39.30;27.48;;;;;;;10.97;100.00;99216.13;10590393;28;20101;-73
2023/10/26 22:27:30;;;;;;;42.10;30.67;;;;;;;10.93;100.00;99204.16;10579966;28;20056;-72
2023/10/26 22:32:30;;;;;;;39.83;24.67;;;;;;;10.89;100.00;99206.53;10580185;28;20473;-73
2023/10/26 22:37:31;;;;;;;43.50;26.98;;;;;;;10.87;100.00;99196.97;10580135;28;20047;-74
2023/10/26 22:42:31;;;;;;;42.03;25.77;;;;;;;10.88;100.00;99185.06;10578432;28;20040;-73
2023/10/26 22:47:32;;;;;;;38.67;25.33;;;;;;;10.89;100.00;99182.16;10566960;28;20441;-73
2023/10/26 22:52:32;;;;;;;38.40;26.05;;;;;;;11.00;100.00;99182.34;10602573;27;20488;-72
2023/10/26 22:57:33;;;;;;;42.65;27.17;;;;;;;10.96;100.00;99178.47;10586419;28;20039;-74